Time;durP1;ratioP1;P1;durP2;ratioP2;P2;SDS_P1;SDS_P2;PMS_P1;PMS_P2;Temp;Humidity;BMP_temperature;BMP_pressure;BME280_temperature;BME280_humidity;BME280_pressure;Samples;Min_cycle;Max_cycle;Signal;HPM_P1;HPM_P2
2023/07/17 00:02:04;;;;;;;1.25;0.75;;;25.40;61.50;;;;;;5071540;28;20037;-81
2023/07/17 00:04:30;;;;;;;1.60;0.60;;;25.40;61.00;;;;;;5071522;28;20040;-78
2023/07/17 00:06:56;;;;;;;1.90;0.98;;;25.40;61.60;;;;;;5054297;28;20037;-81
2023/07/17 00:09:22;;;;;;;2.30;0.98;;;25.30;61.80;;;;;;5055163;28;20037;-81
2023/07/17 00:11:48;;;;;;;3.72;0.50;;;25.30;62.10;;;;;;5071325;28;20107;-80
2023/07/17 00:14:14;;;;;;;1.33;1.15;;;25.20;62.40;;;;;;5054702;28;20082;-79
2023/07/17 00:16:40;;;;;;;1.42;0.75;;;25.10;62.50;;;;;;5054337;28;20090;-80
2023/07/17 00:19:06;;;;;;;1.23;0.80;;;25.10;62.40;;;;;;5072768;28;20024;-81
2023/07/17 00:21:32;;;;;;;0.93;0.47;;;25.10;62.40;;;;;;5072296;28;20115;-81
2023/07/17 00:23:58;;;;;;;0.73;0.65;;;25.10;62.40;;;;;;5071487;28;20032;-81
2023/07/17 00:26:24;;;;;;;1.27;0.77;;;25.00;62.40;;;;;;5070890;28;20040;-80
2023/07/17 00:28:54;;;;;;;1.00;0.60;;;25.00;62.40;;;;;;5071458;28;20028;-79
2023/07/17 00:31:20;;;;;;;1.40;0.98;;;25.00;62.50;;;;;;5055144;28;20044;-82
2023/07/17 00:33:46;;;;;;;0.95;0.60;;;25.00;62.90;;;;;;5054715;28;20040;-82
2023/07/17 00:36:12;;;;;;;2.30;1.67;;;25.00;62.60;;;;;;5070837;28;20401;-79
2023/07/17 00:38:38;;;;;;;1.73;0.90;;;25.00;62.60;;;;;;5071343;28;20028;-81
2023/07/17 00:41:04;;;;;;;1.10;0.63;;;25.00;62.70;;;;;;5070838;28;20436;-80
2023/07/17 00:43:30;;;;;;;1.30;0.60;;;24.90;63.10;;;;;;5054500;28;20382;-81
2023/07/17 00:45:57;;;;;;;0.47;0.47;;;24.90;63.10;;;;;;5056859;28;20033;-81
2023/07/17 00:48:24;;;;;;;0.70;0.70;;;24.80;63.00;;;;;;5075127;28;20032;-82
2023/07/17 00:50:51;;;;;;;2.38;1.33;;;24.80;62.40;;;;;;5074915;28;20033;-81
2023/07/17 00:53:18;;;;;;;1.60;1.05;;;24.80;62.20;;;;;;5075322;28;20028;-82
2023/07/17 00:55:45;;;;;;;0.60;0.60;;;24.70;61.90;;;;;;5075191;28;20385;-81
2023/07/17 00:58:11;;;;;;;0.60;0.60;;;24.60;61.60;;;;;;5058735;28;20033;-81
2023/07/17 01:00:37;;;;;;;1.88;0.75;;;24.40;62.50;;;;;;5075024;28;20107;-81
2023/07/17 01:03:04;;;;;;;1.77;0.93;;;24.30;62.90;;;;;;5058272;28;20064;-81
2023/07/17 01:05:30;;;;;;;1.73;1.23;;;24.20;63.00;;;;;;5074641;28;20504;-79
2023/07/17 01:07:57;;;;;;;0.82;0.60;;;24.20;63.00;;;;;;5074843;28;20450;-81
2023/07/17 01:10:23;;;;;;;0.73;0.40;;;24.20;62.40;;;;;;5057910;28;20033;-79
2023/07/17 01:12:50;;;;;;;0.82;0.57;;;24.20;63.00;;;;;;5074774;28;20044;-81
2023/07/17 01:15:16;;;;;;;1.05;0.60;;;24.20;63.00;;;;;;5057889;28;20033;-79
2023/07/17 01:17:42;;;;;;;0.70;0.47;;;24.20;63.10;;;;;;5057783;28;20040;-79
2023/07/17 01:20:10;;;;;;;1.27;0.98;;;24.20;63.50;;;;;;5075699;28;20037;-79
2023/07/17 01:23:07;;;;;;;1.45;0.80;;;24.20;63.10;;;;;;5057875;28;20036;-79
2023/07/17 01:25:33;;;;;;;;;;;24.20;63.30;;;;;;5074952;28;20090;-81
2023/07/17 01:27:59;;;;;;;0.75;0.63;;;24.10;63.20;;;;;;5074321;28;19924;-81
2023/07/17 01:30:25;;;;;;;1.13;0.98;;;24.00;63.40;;;;;;5074377;28;20036;-79
2023/07/17 01:32:52;;;;;;;0.95;0.73;;;23.90;63.40;;;;;;5074320;28;20043;-81
2023/07/17 01:35:18;;;;;;;1.05;0.85;;;23.90;63.40;;;;;;5057599;28;20381;-81
2023/07/17 01:37:44;;;;;;;1.02;0.65;;;23.80;63.20;;;;;;5057613;28;20050;-79
2023/07/17 01:40:14;;;;;;;1.25;0.88;;;23.80;63.40;;;;;;5075524;28;20036;-81
2023/07/17 01:42:40;;;;;;;0.82;0.60;;;23.70;63.40;;;;;;5074852;28;20090;-79
2023/07/17 01:45:07;;;;;;;0.47;0.30;;;23.70;63.40;;;;;;5074117;28;20093;-79
2023/07/17 01:47:33;;;;;;;1.67;0.90;;;23.80;63.40;;;;;;5073970;28;20447;-80
2023/07/17 01:50:01;;;;;;;;;;;23.70;63.50;;;;;;5058105;28;20036;-81
2023/07/17 01:52:27;;;;;;;3.03;1.20;;;23.80;63.40;;;;;;5057277;28;19971;-81
2023/07/17 01:54:53;;;;;;;0.75;0.60;;;23.70;63.80;;;;;;5075531;28;20037;-80
2023/07/17 01:57:19;;;;;;;0.70;0.40;;;23.70;64.20;;;;;;5072764;28;20075;-81
2023/07/17 01:59:45;;;;;;;0.77;0.35;;;23.70;64.30;;;;;;5075074;28;20052;-79
2023/07/17 02:02:11;;;;;;;0.73;0.50;;;23.60;64.00;;;;;;5073480;28;20096;-81
2023/07/17 02:04:37;;;;;;;0.70;0.70;;;23.50;64.10;;;;;;5057060;28;20043;-81
2023/07/17 02:07:03;;;;;;;;;;;23.50;64.00;;;;;;5074018;28;20036;-80
2023/07/17 02:09:29;;;;;;;1.05;0.60;;;23.50;63.90;;;;;;5073998;28;20262;-80
2023/07/17 02:11:55;;;;;;;;;;;23.30;63.80;;;;;;5073918;28;20032;-81
2023/07/17 02:14:21;;;;;;;1.08;0.80;;;23.20;64.00;;;;;;5075018;28;20288;-81
2023/07/17 02:16:47;;;;;;;;;;;23.20;64.10;;;;;;5073590;28;20052;-80
2023/07/17 02:19:14;;;;;;;2.22;1.10;;;23.20;64.00;;;;;;5056851;28;19916;-80
2023/07/17 02:21:40;;;;;;;0.52;0.40;;;23.20;64.00;;;;;;5073231;28;20024;-80
2023/07/17 02:24:06;;;;;;;1.75;1.30;;;23.20;64.20;;;;;;5073556;28;20033;-81
2023/07/17 02:26:32;;;;;;;;;;;23.20;64.40;;;;;;5074619;28;20041;-80
2023/07/17 02:28:58;;;;;;;1.17;0.57;;;23.10;63.60;;;;;;5056951;28;19916;-79
2023/07/17 02:31:24;;;;;;;0.57;0.45;;;23.00;64.40;;;;;;5073090;28;20067;-81
2023/07/17 02:33:50;;;;;;;0.70;0.60;;;23.10;64.50;;;;;;5074934;28;20061;-81
2023/07/17 02:36:16;;;;;;;1.23;0.60;;;23.00;64.50;;;;;;5056002;28;20503;-80
2023/07/17 02:38:42;;;;;;;;;;;23.00;64.70;;;;;;5056881;28;20037;-81
2023/07/17 02:41:08;;;;;;;0.30;0.30;;;23.00;64.40;;;;;;5074261;28;19948;-81
2023/07/17 02:43:34;;;;;;;;;;;23.00;64.60;;;;;;5073720;28;20082;-81
2023/07/17 02:46:00;;;;;;;2.67;1.63;;;23.00;64.60;;;;;;5072716;28;19917;-80
2023/07/17 02:48:27;;;;;;;1.55;0.95;;;22.90;65.00;;;;;;5056272;28;20527;-81
2023/07/17 02:53:26;;;;;;;1.40;1.20;;;23.00;64.60;;;;;;5073899;28;19920;-81
2023/07/17 02:55:52;;;;;;;;;;;22.90;64.90;;;;;;5073299;28;20514;-80
2023/07/17 02:58:20;;;;;;;1.83;0.73;;;22.90;64.90;;;;;;5056117;28;19912;-80
2023/07/17 03:00:46;;;;;;;0.35;0.30;;;22.80;65.00;;;;;;5055754;28;20123;-80
2023/07/17 03:03:12;;;;;;;1.45;0.90;;;22.80;65.20;;;;;;5072580;28;20519;-81
2023/07/17 03:05:38;;;;;;;;;;;22.80;65.20;;;;;;5072996;28;20470;-81
2023/07/17 03:08:04;;;;;;;0.30;0.30;;;22.80;65.10;;;;;;5055373;28;19955;-80
2023/07/17 03:10:31;;;;;;;0.77;0.50;;;22.70;65.20;;;;;;5072073;28;20036;-80
2023/07/17 03:12:57;;;;;;;1.20;0.80;;;22.70;65.30;;;;;;5072451;28;20033;-81
2023/07/17 03:15:23;;;;;;;0.40;0.40;;;22.70;65.40;;;;;;5073639;28;20040;-81
2023/07/17 03:17:49;;;;;;;1.13;0.50;;;22.70;65.70;;;;;;5072322;28;20394;-80
2023/07/17 03:20:18;;;;;;;0.30;0.30;;;22.70;65.80;;;;;;5055388;28;20041;-81
2023/07/17 03:22:44;;;;;;;1.15;0.57;;;22.70;65.60;;;;;;5072382;28;20071;-81
2023/07/17 03:25:10;;;;;;;0.40;0.40;;;22.80;65.00;;;;;;5071968;28;20044;-80
2023/07/17 03:27:37;;;;;;;3.40;0.77;;;22.80;65.70;;;;;;5055402;28;20060;-80
2023/07/17 03:30:04;;;;;;;1.33;0.90;;;22.80;65.90;;;;;;5072356;28;20373;-81
2023/07/17 03:32:50;;;;;;;0.75;0.50;;;22.80;65.30;;;;;;5055551;28;20025;-81
2023/07/17 03:35:16;;;;;;;3.20;0.73;;;22.80;65.70;;;;;;5055236;28;20040;-81
2023/07/17 03:37:42;;;;;;;1.05;0.73;;;22.80;65.70;;;;;;5072200;28;20093;-80
2023/07/17 03:40:10;;;;;;;1.83;0.82;;;22.80;65.70;;;;;;5073105;28;20028;-80
2023/07/17 03:42:36;;;;;;;0.77;0.47;;;22.70;65.40;;;;;;5055392;28;20056;-81
2023/07/17 03:45:04;;;;;;;1.67;0.80;;;22.70;65.80;;;;;;5055574;28;20033;-81
2023/07/17 03:47:31;;;;;;;1.88;0.85;;;22.60;65.40;;;;;;5055292;28;20056;-80
2023/07/17 03:49:57;;;;;;;1.05;0.95;;;22.60;65.00;;;;;;5055101;28;20358;-81
2023/07/17 03:52:23;;;;;;;1.40;1.00;;;22.60;65.30;;;;;;5071566;28;20036;-80
2023/07/17 03:54:49;;;;;;;1.23;1.13;;;22.60;65.40;;;;;;5055176;28;20123;-81
2023/07/17 03:57:15;;;;;;;1.85;1.30;;;22.60;65.60;;;;;;5071404;28;20032;-81
2023/07/17 04:00:00;;;;;;;0.65;0.52;;;22.50;65.30;;;;;;5072035;28;20115;-81
2023/07/17 04:02:26;;;;;;;0.73;0.45;;;22.50;65.50;;;;;;5071094;28;20033;-81
2023/07/17 04:04:52;;;;;;;0.52;0.43;;;22.50;65.50;;;;;;5055327;28;20028;-81
2023/07/17 04:07:19;;;;;;;0.95;0.70;;;22.50;65.40;;;;;;5054653;28;20465;-81
2023/07/17 04:09:45;;;;;;;0.85;0.73;;;22.60;65.20;;;;;;5071849;28;20535;-81
2023/07/17 04:12:12;;;;;;;0.30;0.30;;;22.60;65.30;;;;;;5071145;28;20054;-81
2023/07/17 04:14:38;;;;;;;0.93;0.47;;;22.60;65.20;;;;;;5071646;28;20094;-81
2023/07/17 04:17:05;;;;;;;0.73;0.57;;;22.70;65.40;;;;;;5072198;28;20040;-81
2023/07/17 04:19:31;;;;;;;1.13;0.60;;;22.70;65.40;;;;;;5071219;28;20036;-80
2023/07/17 04:21:57;;;;;;;2.58;0.70;;;22.80;65.50;;;;;;5054231;28;20043;-81
2023/07/17 04:24:23;;;;;;;;;;;22.80;65.70;;;;;;5071979;28;20032;-81
2023/07/17 04:26:50;;;;;;;1.15;0.80;;;22.80;65.50;;;;;;5071099;28;20292;-81
2023/07/17 04:29:17;;;;;;;0.80;0.52;;;22.70;65.80;;;;;;5071543;28;20485;-81
2023/07/17 04:31:43;;;;;;;1.90;1.00;;;22.80;65.20;;;;;;5070780;28;20036;-80
2023/07/17 04:34:09;;;;;;;1.20;0.82;;;22.80;66.30;;;;;;5070981;28;20041;-80
2023/07/17 04:36:35;;;;;;;0.98;0.50;;;22.80;66.40;;;;;;5072130;28;20063;-80
2023/07/17 04:39:04;;;;;;;;;;;22.80;66.60;;;;;;5054530;28;20036;-80
2023/07/17 04:41:31;;;;;;;0.47;0.40;;;22.80;66.10;;;;;;5070794;28;19977;-81
2023/07/17 04:43:57;;;;;;;1.48;0.68;;;22.80;65.50;;;;;;5054431;28;20028;-81
2023/07/17 04:46:24;;;;;;;1.00;0.57;;;22.90;66.10;;;;;;5053997;28;20032;-81
2023/07/17 04:48:50;;;;;;;0.68;0.47;;;22.90;65.80;;;;;;5054343;28;20456;-79
2023/07/17 04:51:16;;;;;;;1.65;0.95;;;23.00;66.10;;;;;;5070598;28;20036;-80
2023/07/17 04:53:42;;;;;;;1.42;0.93;;;23.10;66.00;;;;;;5071334;28;20032;-81
2023/07/17 04:56:08;;;;;;;1.60;1.02;;;23.10;66.00;;;;;;5070804;28;20028;-80
2023/07/17 04:58:34;;;;;;;;;;;23.10;66.10;;;;;;5071585;28;20033;-80
2023/07/17 05:01:19;;;;;;;2.75;1.13;;;23.20;66.00;;;;;;5054184;28;20331;-80
2023/07/17 05:03:45;;;;;;;0.60;0.50;;;23.30;66.00;;;;;;5054153;28;20028;-80
2023/07/17 05:06:11;;;;;;;0.70;0.57;;;23.40;66.00;;;;;;5070330;28;20040;-80
2023/07/17 05:08:37;;;;;;;;;;;23.40;66.00;;;;;;5071486;28;20078;-81
2023/07/17 05:11:04;;;;;;;0.30;0.30;;;23.50;66.60;;;;;;5070323;28;19981;-80
2023/07/17 05:13:30;;;;;;;1.35;0.80;;;23.50;67.40;;;;;;5054105;28;20078;-79
2023/07/17 05:15:57;;;;;;;1.35;0.98;;;23.50;68.20;;;;;;5071760;28;20047;-79
2023/07/17 05:18:23;;;;;;;1.10;0.70;;;23.60;67.80;;;;;;5053880;28;20115;-79
2023/07/17 05:20:51;;;;;;;0.77;0.55;;;23.60;67.80;;;;;;5070508;28;20070;-80
2023/07/17 05:23:18;;;;;;;1.00;0.60;;;23.70;67.60;;;;;;5053912;28;20040;-81
2023/07/17 05:25:53;;;;;;;0.63;0.57;;;23.80;67.50;;;;;;5070659;28;20033;-79
2023/07/17 05:28:20;;;;;;;0.30;0.30;;;23.90;67.70;;;;;;5054028;28;20114;-79
2023/07/17 05:30:50;;;;;;;1.42;0.80;;;23.90;67.20;;;;;;5054282;28;20396;-79
2023/07/17 05:33:16;;;;;;;0.93;0.73;;;24.00;67.00;;;;;;5073916;28;20028;-80
2023/07/17 05:35:42;;;;;;;0.47;0.45;;;24.20;67.40;;;;;;5057601;28;20036;-81
2023/07/17 05:38:09;;;;;;;;;;;24.20;67.10;;;;;;5074942;28;20028;-81
2023/07/17 05:40:37;;;;;;;1.05;0.65;;;24.30;67.10;;;;;;5074147;28;19916;-79
2023/07/17 05:43:04;;;;;;;1.15;0.75;;;24.40;66.70;;;;;;5075400;28;20033;-80
2023/07/17 05:45:30;;;;;;;1.15;0.82;;;24.50;67.90;;;;;;5074096;28;20033;-79
2023/07/17 05:47:56;;;;;;;0.70;0.57;;;24.50;67.30;;;;;;5057465;28;20503;-81
2023/07/17 05:50:22;;;;;;;0.80;0.60;;;24.60;67.10;;;;;;5057234;28;20040;-81
2023/07/17 05:52:49;;;;;;;0.73;0.50;;;24.70;67.10;;;;;;5057400;28;20552;-79
2023/07/17 05:55:15;;;;;;;1.35;0.88;;;24.80;66.90;;;;;;5057044;28;20051;-81
2023/07/17 05:57:41;;;;;;;0.82;0.82;;;24.90;67.10;;;;;;5057443;28;20529;-81
2023/07/17 06:02:54;;;;;;;1.08;0.82;;;25.10;66.70;;;;;;5074175;28;20097;-79
2023/07/17 06:05:20;;;;;;;0.40;0.40;;;25.20;66.40;;;;;;5073341;28;20033;-82
2023/07/17 06:07:46;;;;;;;0.73;0.60;;;25.30;66.20;;;;;;5057159;28;20120;-81
2023/07/17 06:10:12;;;;;;;0.50;0.30;;;25.40;66.30;;;;;;5075303;28;20036;-82
2023/07/17 06:12:40;;;;;;;1.08;0.68;;;25.50;66.00;;;;;;5073902;28;20040;-81
2023/07/17 06:15:07;;;;;;;0.50;0.45;;;25.60;65.60;;;;;;5057110;28;20412;-81
2023/07/17 06:17:33;;;;;;;1.48;1.10;;;25.70;65.20;;;;;;5073605;28;20040;-82
2023/07/17 06:19:59;;;;;;;0.75;0.73;;;25.80;65.10;;;;;;5073736;28;20032;-80
2023/07/17 06:22:25;;;;;;;0.65;0.55;;;25.90;64.60;;;;;;5073212;28;20040;-78
2023/07/17 06:24:51;;;;;;;0.35;0.35;;;26.00;65.60;;;;;;5073600;28;20048;-79
2023/07/17 06:27:17;;;;;;;1.65;0.85;;;26.10;65.00;;;;;;5072859;28;20048;-79
2023/07/17 06:29:43;;;;;;;2.13;1.20;;;26.20;64.60;;;;;;5056740;28;20280;-79
2023/07/17 06:32:09;;;;;;;1.55;0.80;;;26.30;64.20;;;;;;5056139;28;20036;-79
2023/07/17 06:34:35;;;;;;;1.13;1.00;;;26.40;64.20;;;;;;5056670;28;20035;-80
2023/07/17 06:37:02;;;;;;;2.25;1.20;;;26.50;64.20;;;;;;5072573;28;20036;-79
2023/07/17 06:39:28;;;;;;;1.20;0.77;;;26.60;64.10;;;;;;5073213;28;20039;-80
2023/07/17 06:41:54;;;;;;;1.30;0.73;;;26.70;63.50;;;;;;5072719;28;20033;-81
2023/07/17 06:44:20;;;;;;;0.52;0.40;;;26.80;63.10;;;;;;5072932;28;20029;-80
2023/07/17 06:46:46;;;;;;;1.15;0.80;;;26.90;62.60;;;;;;5073876;28;20082;-79
2023/07/17 06:49:12;;;;;;;0.57;0.57;;;27.10;62.90;;;;;;5056260;28;20041;-79
2023/07/17 06:51:38;;;;;;;0.95;0.70;;;27.20;62.40;;;;;;5072539;28;20036;-80
2023/07/17 06:54:04;;;;;;;0.85;0.57;;;27.30;62.10;;;;;;5072821;28;20430;-80
2023/07/17 06:56:30;;;;;;;1.30;0.80;;;27.40;62.10;;;;;;5072490;28;20066;-81
2023/07/17 06:58:56;;;;;;;1.80;0.60;;;27.50;61.70;;;;;;5055984;28;20036;-80
2023/07/17 07:01:22;;;;;;;0.93;0.73;;;27.60;61.40;;;;;;5055499;28;20032;-80
2023/07/17 07:03:48;;;;;;;1.52;0.95;;;27.80;61.10;;;;;;5055913;28;20036;-81
2023/07/17 07:06:14;;;;;;;1.17;0.73;;;28.00;60.90;;;;;;5055242;28;20075;-80
2023/07/17 07:08:42;;;;;;;1.95;1.23;;;28.10;60.60;;;;;;5072577;28;20040;-80
2023/07/17 07:11:10;;;;;;;1.02;0.93;;;28.20;60.40;;;;;;5072156;28;20385;-80
2023/07/17 07:13:36;;;;;;;1.52;0.98;;;28.40;59.70;;;;;;5055916;28;20025;-81
2023/07/17 07:16:02;;;;;;;0.98;0.68;;;28.70;59.20;;;;;;5072022;28;20094;-80
2023/07/17 07:18:28;;;;;;;0.80;0.60;;;28.80;58.10;;;;;;5072328;28;20116;-80
2023/07/17 07:20:54;;;;;;;1.48;0.93;;;29.00;58.60;;;;;;5071715;28;20021;-82
2023/07/17 07:23:21;;;;;;;1.42;1.02;;;29.30;57.90;;;;;;5055809;28;20487;-82
2023/07/17 07:25:47;;;;;;;5.72;1.60;;;29.30;57.00;;;;;;5055472;28;20082;-82
2023/07/17 07:28:14;;;;;;;0.88;0.70;;;29.40;57.40;;;;;;5073037;28;20412;-81
2023/07/17 07:30:40;;;;;;;1.25;0.82;;;29.50;57.40;;;;;;5071672;28;20029;-80
2023/07/17 07:33:06;;;;;;;1.60;1.35;;;29.50;57.30;;;;;;5055539;28;20043;-80
2023/07/17 07:35:32;;;;;;;2.40;1.17;;;29.50;56.80;;;;;;5072109;28;20119;-81
2023/07/17 07:37:58;;;;;;;0.80;0.50;;;29.60;56.40;;;;;;5071990;28;20130;-81
2023/07/17 07:40:25;;;;;;;1.13;1.00;;;29.70;56.20;;;;;;5071638;28;20036;-79
2023/07/17 07:42:52;;;;;;;1.95;1.42;;;29.90;56.10;;;;;;5071899;28;20375;-80
2023/07/17 07:45:19;;;;;;;1.33;0.95;;;30.00;55.90;;;;;;5071660;28;20370;-81
2023/07/17 07:47:45;;;;;;;5.68;1.08;;;30.00;55.20;;;;;;5055187;28;20119;-80
2023/07/17 07:50:11;;;;;;;1.45;1.20;;;30.00;54.90;;;;;;5054846;28;20253;-79
2023/07/17 07:52:37;;;;;;;0.68;0.60;;;30.20;54.90;;;;;;5071730;28;20492;-80
2023/07/17 07:55:05;;;;;;;1.25;0.90;;;30.30;54.40;;;;;;5071278;28;20460;-80
2023/07/17 07:57:31;;;;;;;2.05;1.00;;;30.40;54.10;;;;;;5054627;28;20039;-80
2023/07/17 07:59:57;;;;;;;1.05;0.85;;;30.50;53.50;;;;;;5071546;28;20111;-80
2023/07/17 08:02:23;;;;;;;1.70;1.02;;;30.50;53.70;;;;;;5071134;28;20036;-79
2023/07/17 08:04:50;;;;;;;2.13;1.17;;;30.60;53.60;;;;;;5071644;28;20036;-80
2023/07/17 08:07:16;;;;;;;1.80;1.23;;;30.70;53.10;;;;;;5071094;28;20120;-81
2023/07/17 08:09:42;;;;;;;1.90;1.02;;;30.80;53.20;;;;;;5071969;28;20055;-79
2023/07/17 08:12:09;;;;;;;1.65;0.95;;;30.90;52.90;;;;;;5054246;28;20405;-81
2023/07/17 08:14:35;;;;;;;1.55;1.00;;;31.00;53.20;;;;;;5071479;28;20032;-80
2023/07/17 08:17:02;;;;;;;1.80;1.02;;;31.00;53.10;;;;;;5070778;28;20040;-81
2023/07/17 08:19:28;;;;;;;0.95;0.77;;;31.10;51.80;;;;;;5071682;28;20034;-80
2023/07/17 08:21:54;;;;;;;1.55;1.33;;;31.20;51.10;;;;;;5054289;28;20476;-81
2023/07/17 08:24:20;;;;;;;8.27;1.40;;;31.30;50.80;;;;;;5071394;28;20032;-81
2023/07/17 08:26:46;;;;;;;0.63;0.63;;;31.40;50.70;;;;;;5070728;28;20405;-80
2023/07/17 08:29:12;;;;;;;1.60;0.82;;;31.50;50.40;;;;;;5054421;28;20090;-81
2023/07/17 08:31:39;;;;;;;1.88;1.20;;;31.60;50.10;;;;;;5070472;28;20093;-80
2023/07/17 08:34:05;;;;;;;1.77;1.33;;;31.70;49.50;;;;;;5071304;28;20065;-81
2023/07/17 08:36:31;;;;;;;0.98;0.70;;;31.70;49.00;;;;;;5070624;28;20048;-81
2023/07/17 08:38:58;;;;;;;5.78;2.92;;;31.80;48.50;;;;;;5054145;28;20032;-83
2023/07/17 08:41:25;;;;;;;1.98;1.20;;;31.80;48.20;;;;;;5071067;28;20040;-81
2023/07/17 08:43:52;;;;;;;2.03;1.23;;;31.90;46.30;;;;;;5054448;28;20036;-82
2023/07/17 08:46:19;;;;;;;1.48;0.93;;;32.00;47.40;;;;;;5072254;28;20428;-82
2023/07/17 08:48:47;;;;;;;3.15;1.55;;;32.10;46.60;;;;;;5054716;28;20405;-81
2023/07/17 08:51:15;;;;;;;1.05;0.85;;;32.10;45.40;;;;;;5054713;28;20037;-82
2023/07/17 08:54:01;;;;;;;1.30;1.17;;;32.10;44.60;;;;;;5072512;28;20052;-82
2023/07/17 08:56:27;;;;;;;0.70;0.47;;;32.20;44.70;;;;;;5070924;28;20581;-80
2023/07/17 08:58:54;;;;;;;0.52;0.50;;;32.30;44.20;;;;;;5054460;28;20036;-82
2023/07/17 09:01:21;;;;;;;1.50;0.93;;;32.60;44.40;;;;;;5053962;28;20029;-82
2023/07/17 09:03:49;;;;;;;1.05;0.75;;;32.90;43.20;;;;;;5071236;28;20362;-80
2023/07/17 09:06:21;;;;;;;10.38;1.38;;;33.20;43.50;;;;;;5053741;28;20036;-81
2023/07/17 09:08:47;;;;;;;2.60;0.90;;;33.70;43.00;;;;;;5058267;28;20389;-81
2023/07/17 09:11:16;;;;;;;0.60;0.57;;;34.30;41.80;;;;;;5075734;28;20092;-81
2023/07/17 09:14:03;;;;;;;1.05;0.88;;;34.80;40.20;;;;;;5058117;28;20035;-81
2023/07/17 09:16:29;;;;;;;1.33;1.10;;;35.50;39.00;;;;;;5074289;28;20037;-80
2023/07/17 09:18:55;;;;;;;1.33;0.85;;;36.20;37.60;;;;;;5075746;28;20037;-81
2023/07/17 09:21:24;;;;;;;1.67;1.00;;;36.90;37.00;;;;;;5057513;28;20493;-81
2023/07/17 09:23:54;;;;;;;1.80;0.82;;;37.50;35.90;;;;;;5074674;28;20036;-81
2023/07/17 09:26:23;;;;;;;2.88;1.83;;;38.20;34.80;;;;;;5057675;28;20531;-81
2023/07/17 09:29:12;;;;;;;2.28;0.70;;;38.70;32.20;;;;;;5074478;28;20036;-82
2023/07/17 09:31:38;;;;;;;5.22;1.08;;;39.20;31.70;;;;;;5074190;28;20086;-80
2023/07/17 09:34:13;;;;;;;2.40;1.08;;;39.90;31.30;;;;;;5057964;28;20492;-80
2023/07/17 09:36:39;;;;;;;1.55;1.15;;;40.30;30.20;;;;;;5075350;28;20033;-81
2023/07/17 09:39:05;;;;;;;1.63;1.20;;;40.70;29.40;;;;;;5075519;28;20059;-80
2023/07/17 09:41:32;;;;;;;2.10;1.10;;;41.30;28.40;;;;;;5057257;28;20060;-80
2023/07/17 09:44:18;;;;;;;1.48;0.88;;;41.70;27.40;;;;;;5075463;28;20108;-82
2023/07/17 09:46:45;;;;;;;1.38;1.02;;;42.10;26.60;;;;;;5073833;28;20501;-80
2023/07/17 09:49:11;;;;;;;1.30;1.13;;;42.60;26.20;;;;;;5075258;28;20071;-81
2023/07/17 09:51:37;;;;;;;1.20;1.00;;;43.30;26.10;;;;;;5074768;28;20094;-80
2023/07/17 09:54:05;;;;;;;0.65;0.65;;;43.80;24.80;;;;;;5057259;28;20079;-82
2023/07/17 09:56:33;;;;;;;1.10;1.00;;;44.30;23.00;;;;;;5056855;28;20394;-79
2023/07/17 09:59:21;;;;;;;2.65;1.40;;;44.70;24.00;;;;;;5073663;28;20033;-80
2023/07/17 10:01:51;;;;;;;0.77;0.77;;;45.60;23.30;;;;;;5056766;28;20044;-81
2023/07/17 10:04:38;;;;;;;1.35;1.10;;;46.20;22.60;;;;;;5073998;28;20029;-80
2023/07/17 10:07:07;;;;;;;1.10;1.00;;;46.40;21.40;;;;;;5073051;28;20400;-79
2023/07/17 10:09:36;;;;;;;1.67;1.35;;;47.00;21.00;;;;;;5056940;28;20032;-81
2023/07/17 10:12:04;;;;;;;1.27;1.17;;;47.60;20.60;;;;;;5056223;28;20476;-80
2023/07/17 10:14:31;;;;;;;2.80;2.08;;;48.30;20.10;;;;;;5073367;28;20060;-81
2023/07/17 10:16:57;;;;;;;1.98;1.70;;;48.90;19.20;;;;;;5072707;28;20044;-81
2023/07/17 10:19:33;;;;;;;1.95;1.75;;;49.30;19.00;;;;;;5055816;28;20105;-79
2023/07/17 10:21:59;;;;;;;2.53;2.03;;;49.70;18.60;;;;;;5072855;28;20071;-79
2023/07/17 10:24:25;;;;;;;1.80;1.70;;;50.10;18.40;;;;;;5073312;28;20094;-81
2023/07/17 10:26:52;;;;;;;2.55;2.17;;;50.70;18.30;;;;;;5073691;28;20456;-81
2023/07/17 10:29:55;;;;;;;1.60;1.50;;;51.20;17.20;;;;;;5073177;28;20494;-79
2023/07/17 10:32:21;;;;;;;2.35;2.15;;;51.70;16.60;;;;;;5055695;28;20432;-80
2023/07/17 10:35:06;;;;;;;2.50;2.22;;;52.00;16.10;;;;;;5073178;28;20063;-79
2023/07/17 10:37:32;;;;;;;2.63;2.22;;;52.20;15.60;;;;;;5073920;28;20052;-79
2023/07/17 10:40:36;;;;;;;2.58;2.38;;;52.60;15.60;;;;;;5073015;28;20036;-79
2023/07/17 10:43:15;;;;;;;2.67;2.35;;;53.10;14.60;;;;;;5072708;28;20063;-80
2023/07/17 10:45:41;;;;;;;3.10;2.70;;;53.50;14.50;;;;;;5072759;28;20359;-78
2023/07/17 10:48:07;;;;;;;2.83;2.55;;;53.80;14.00;;;;;;5072652;28;20060;-79
2023/07/17 10:50:34;;;;;;;2.55;2.25;;;54.10;13.70;;;;;;5072559;28;20040;-79
2023/07/17 10:53:20;;;;;;;2.95;2.50;;;54.00;13.70;;;;;;5072604;28;20041;-79
2023/07/17 10:55:47;;;;;;;3.20;2.90;;;54.20;12.80;;;;;;5055903;28;20036;-80
2023/07/17 10:58:14;;;;;;;3.42;3.13;;;54.40;12.80;;;;;;5072262;28;20528;-81
2023/07/17 11:00:42;;;;;;;3.28;2.97;;;54.40;13.30;;;;;;5055751;28;20143;-80
2023/07/17 11:03:27;;;;;;;4.22;3.83;;;54.50;13.50;;;;;;5055773;28;20500;-81
2023/07/17 11:08:39;;;;;;;4.20;3.72;;;55.30;13.10;;;;;;5072620;28;20391;-79
2023/07/17 11:11:05;;;;;;;4.47;4.07;;;55.70;13.00;;;;;;5071864;28;20044;-79
2023/07/17 11:13:31;;;;;;;3.35;3.05;;;55.60;12.50;;;;;;5071882;28;20485;-79
2023/07/17 11:16:07;;;;;;;4.07;3.67;;;56.00;12.80;;;;;;5054854;28;20067;-81
2023/07/17 11:18:33;;;;;;;4.22;3.83;;;56.30;12.60;;;;;;5055500;28;20472;-81
2023/07/17 11:20:59;;;;;;;5.07;4.57;;;56.60;12.60;;;;;;5071968;28;20059;-79
2023/07/17 11:23:25;;;;;;;5.22;4.82;;;56.80;12.00;;;;;;5073027;28;20048;-81
2023/07/17 11:25:52;;;;;;;5.15;4.68;;;56.80;12.40;;;;;;5054888;28;20037;-81
2023/07/17 11:28:18;;;;;;;6.38;5.88;;;57.20;12.20;;;;;;5071928;28;20455;-80
2023/07/17 11:30:44;;;;;;;6.00;5.50;;;57.60;12.40;;;;;;5070976;28;20036;-81
2023/07/17 11:33:10;;;;;;;5.65;5.22;;;57.90;11.90;;;;;;5055167;28;20051;-79
2023/07/17 11:35:38;;;;;;;6.50;6.00;;;57.90;11.20;;;;;;5073046;28;20043;-81
2023/07/17 11:38:26;;;;;;;6.50;6.00;;;58.20;12.10;;;;;;5071655;28;20056;-80
2023/07/17 11:40:54;;;;;;;6.43;5.93;;;58.60;11.70;;;;;;5071267;28;20048;-81
2023/07/17 11:43:39;;;;;;;7.00;6.50;;;58.90;11.80;;;;;;5054907;28;20115;-79
2023/07/17 11:46:08;;;;;;;7.60;7.10;;;59.00;12.30;;;;;;5071207;28;20123;-79
2023/07/17 11:48:53;;;;;;;6.95;6.45;;;59.00;12.00;;;;;;5054851;28;20039;-80
2023/07/17 11:51:25;;;;;;;6.70;6.20;;;59.40;12.00;;;;;;5071242;28;20402;-80
2023/07/17 11:54:10;;;;;;;7.30;6.80;;;59.50;11.80;;;;;;5071453;28;20039;-81
2023/07/17 11:56:40;;;;;;;8.63;7.93;;;59.80;10.80;;;;;;5071074;28;20037;-81
2023/07/17 11:59:16;;;;;;;8.48;7.88;;;59.60;11.70;;;;;;5071679;28;20033;-79
2023/07/17 12:01:42;;;;;;;9.23;8.57;;;59.90;11.20;;;;;;5071221;28;20040;-80
2023/07/17 12:04:28;;;;;;;8.95;8.35;;;60.30;11.80;;;;;;5054688;28;20128;-82
2023/07/17 12:06:55;;;;;;;8.98;8.38;;;60.20;11.30;;;;;;5070820;28;20047;-80
2023/07/17 12:09:22;;;;;;;9.20;8.60;;;60.30;11.50;;;;;;5054619;28;20133;-80
2023/07/17 12:11:48;;;;;;;9.40;8.80;;;60.20;11.70;;;;;;5070967;28;20029;-79
2023/07/17 12:14:16;;;;;;;9.25;8.65;;;60.30;12.40;;;;;;5054498;28;20055;-79
2023/07/17 12:17:02;;;;;;;10.40;9.80;;;60.70;11.20;;;;;;5070795;28;20163;-80
2023/07/17 12:19:28;;;;;;;10.82;10.13;;;60.90;11.10;;;;;;5054512;28;20039;-80
2023/07/17 12:21:54;;;;;;;9.52;8.93;;;61.00;11.50;;;;;;5072060;28;20044;-80
2023/07/17 12:24:20;;;;;;;11.23;10.52;;;60.60;11.00;;;;;;5054554;28;20381;-79
2023/07/17 12:26:46;;;;;;;10.23;9.63;;;60.60;11.30;;;;;;5070683;28;20057;-79
2023/07/17 12:29:12;;;;;;;10.65;10.05;;;60.70;10.90;;;;;;5052798;28;20032;-80
2023/07/17 12:31:38;;;;;;;10.90;10.30;;;60.90;10.90;;;;;;5053743;28;20485;-81
2023/07/17 12:34:04;;;;;;;10.02;9.43;;;60.80;10.70;;;;;;5054167;28;20028;-80
2023/07/17 12:36:31;;;;;;;10.80;10.10;;;60.40;11.00;;;;;;5070281;28;20063;-82
2023/07/17 12:39:13;;;;;;;10.05;9.40;;;59.90;10.30;;;;;;5054243;28;20055;-79
2023/07/17 12:41:39;;;;;;;9.38;8.77;;;59.50;11.20;;;;;;5074159;28;20509;-80
2023/07/17 12:44:05;;;;;;;9.95;9.25;;;59.20;10.50;;;;;;5058412;28;20082;-82
2023/07/17 12:46:31;;;;;;;7.72;7.22;;;59.00;11.30;;;;;;5074816;28;20456;-81
2023/07/17 12:48:58;;;;;;;8.80;8.20;;;59.10;12.00;;;;;;5076343;28;20036;-83
2023/07/17 12:51:24;;;;;;;7.93;7.32;;;59.20;10.90;;;;;;5074591;28;20032;-83
2023/07/17 12:53:50;;;;;;;7.90;7.40;;;58.70;11.70;;;;;;5076268;28;20033;-82
2023/07/17 12:56:16;;;;;;;7.43;6.93;;;58.70;11.60;;;;;;5074543;28;20082;-80
2023/07/17 12:58:42;;;;;;;7.35;6.85;;;58.70;11.70;;;;;;5058219;28;20028;-79
2023/07/17 13:01:08;;;;;;;6.88;6.38;;;59.00;12.40;;;;;;5075819;28;20416;-79
2023/07/17 13:03:34;;;;;;;8.23;7.63;;;59.30;11.60;;;;;;5074878;28;20029;-79